McGees Mills, Pennsylvania
Current Conditions -  °F | °C
As of 12:54 PM on Thursday 23 Oct 2014 (Local Time) from KFIG Reporting Station
Clear Clear  
Wind Chill: 59°   Ceiling: Unl
Heat Index: 59°   Visibility: 10mi
Dew Point: 41°   Wind: 12mph
Humidity: 51%   Direction: 330°NNW
Pressure: 30"   Gusts: 18mph
Location:  40.9103°N, 78.7273°W
Report Text: KFIG 231654Z AUTO 33010G16KT 10SM CLR 15/05 A3000 RMK AO2 SLP159 T01500050
Loading
Personal Weather Stations






























Interactive Weather Map
Tropical Storm Tracking
New forecast layout! Learn more

10-Day Weather Forecast

Advertisements
Track Severe Weather on mobile